createdAt,value
2023-02-22T16:26:05.477Z,19.73
2023-02-22T16:28:35.657Z,18.55
2023-02-22T16:31:04.364Z,18.17
2023-02-22T16:33:34.173Z,18.60
2023-02-22T16:36:08.163Z,19.88
2023-02-22T16:38:38.385Z,19.48
2023-02-22T16:41:08.231Z,19.67
2023-02-22T16:43:36.316Z,19.20
2023-02-22T16:46:06.841Z,20.35
2023-02-22T16:48:38.077Z,19.38
2023-02-22T16:51:15.456Z,20.73
2023-02-22T16:53:44.539Z,20.20
2023-02-22T16:56:16.732Z,19.90
2023-02-22T16:58:45.484Z,20.38
2023-02-22T17:01:13.768Z,20.23
2023-02-22T17:03:41.610Z,20.00
2023-02-22T17:06:10.987Z,20.95
2023-02-22T17:08:38.849Z,21.45
2023-02-22T17:11:07.502Z,21.50
2023-02-22T17:13:36.733Z,20.95
2023-02-22T17:16:05.577Z,28.77
2023-02-22T17:18:34.761Z,31.05
2023-02-22T17:21:03.445Z,33.75
2023-02-22T17:23:31.297Z,29.27
2023-02-22T17:26:00.262Z,28.83
2023-02-22T17:28:28.289Z,27.40
2023-02-22T17:31:01.600Z,27.40
2023-02-22T17:33:32.938Z,26.20
2023-02-22T17:36:02.856Z,24.38
2023-02-22T17:38:30.711Z,22.60
2023-02-22T17:40:59.689Z,23.55
2023-02-22T17:43:28.850Z,23.17
2023-02-22T17:45:58.313Z,27.38
2023-02-22T17:48:26.898Z,21.60
2023-02-22T17:50:54.670Z,23.25
2023-02-22T17:53:24.747Z,23.63
2023-02-22T17:55:52.788Z,24.10
2023-02-22T17:58:20.641Z,25.15
2023-02-22T18:00:50.133Z,23.73
2023-02-22T18:03:21.862Z,23.38
2023-02-22T18:05:51.253Z,24.27
2023-02-22T18:08:19.072Z,25.43
2023-02-22T18:10:47.630Z,25.15
2023-02-22T18:13:17.871Z,24.05
2023-02-22T18:15:45.941Z,24.35
2023-02-22T18:18:14.917Z,23.58
2023-02-22T18:20:44.554Z,25.93
2023-02-22T18:23:14.604Z,25.45
2023-02-22T18:25:57.152Z,25.67
2023-02-22T18:28:31.878Z,26.58
2023-02-22T18:31:00.422Z,26.02
2023-02-22T18:33:28.354Z,26.52
2023-02-22T18:35:59.609Z,26.02
2023-02-22T18:38:27.350Z,25.95
2023-02-22T18:41:02.233Z,24.57
2023-02-22T18:43:31.894Z,24.90
2023-02-22T18:46:09.508Z,24.85
2023-02-22T18:48:38.986Z,25.83
2023-02-22T18:51:10.254Z,27.40
2023-02-22T18:53:38.454Z,30.70
2023-02-22T18:56:09.724Z,27.80
2023-02-22T18:58:38.788Z,26.20
2023-02-22T19:01:07.552Z,26.83
2023-02-22T19:03:38.298Z,25.02
2023-02-22T19:06:09.859Z,25.33
2023-02-22T19:08:39.505Z,25.60
2023-02-22T19:11:08.851Z,25.70
2023-02-22T19:13:36.736Z,25.58
2023-02-22T19:16:05.032Z,25.67
2023-02-22T19:18:32.883Z,26.10
2023-02-22T19:21:01.855Z,27.17
2023-02-22T19:23:34.457Z,26.13
2023-02-22T19:26:03.147Z,27.67
2023-02-22T19:28:34.152Z,28.67
2023-02-22T19:31:12.398Z,27.55
2023-02-22T19:33:40.274Z,27.80
2023-02-22T19:36:09.310Z,28.00
2023-02-22T19:38:38.626Z,27.35
2023-02-22T19:41:10.848Z,27.20
2023-02-22T19:43:38.541Z,28.90
2023-02-22T19:46:07.373Z,28.25
2023-02-22T19:48:35.173Z,27.55
2023-02-22T19:51:06.219Z,28.08
2023-02-22T19:53:34.217Z,28.40
2023-02-22T19:56:06.880Z,30.38
2023-02-22T19:58:36.754Z,29.50
2023-02-22T20:01:12.149Z,27.73
2023-02-22T20:03:41.016Z,28.80
2023-02-22T20:06:09.911Z,29.98
2023-02-22T20:08:41.830Z,30.35
2023-02-22T20:11:12.029Z,29.88
2023-02-22T20:13:40.859Z,30.02
2023-02-22T20:16:09.874Z,30.08
2023-02-22T20:18:37.802Z,31.00
2023-02-22T20:21:09.448Z,32.58
2023-02-22T20:23:40.152Z,32.85
2023-02-22T20:26:17.437Z,32.55
2023-02-22T20:28:45.277Z,34.07
2023-02-22T20:31:14.445Z,33.42
2023-02-22T20:33:42.860Z,33.65
2023-02-22T20:36:11.557Z,34.67
2023-02-22T20:38:39.696Z,34.70
2023-02-22T20:41:08.108Z,32.90
2023-02-22T20:43:37.314Z,34.77
2023-02-22T20:46:06.426Z,36.87
2023-02-22T20:48:35.448Z,35.20
2023-02-22T20:51:06.772Z,35.47
2023-02-22T20:53:35.337Z,37.33
2023-02-22T20:56:03.273Z,35.75
2023-02-22T20:58:31.003Z,37.22
2023-02-22T21:01:06.297Z,35.72
2023-02-22T21:03:34.179Z,34.78
2023-02-22T21:06:02.414Z,38.22
2023-02-22T21:08:31.219Z,35.40
2023-02-22T21:10:59.454Z,38.33
2023-02-22T21:13:28.230Z,37.53
2023-02-22T21:15:56.384Z,37.25
2023-02-22T21:18:25.576Z,36.38
2023-02-22T21:20:53.785Z,33.78
2023-02-22T21:23:21.634Z,34.17
2023-02-22T21:25:53.025Z,34.42
2023-02-22T21:28:21.236Z,36.03
2023-02-22T21:30:49.023Z,34.70
2023-02-22T21:33:16.990Z,34.03
2023-02-22T21:35:47.291Z,33.22
2023-02-22T21:38:15.322Z,33.88
2023-02-22T21:40:47.602Z,34.63
2023-02-22T21:43:16.664Z,34.33
2023-02-22T21:45:44.497Z,34.70
2023-02-22T21:48:12.285Z,35.80
2023-02-22T21:50:40.669Z,36.78
2023-02-22T21:53:09.917Z,34.07
2023-02-22T21:55:38.317Z,38.40
2023-02-22T21:58:08.656Z,38.15
2023-02-22T22:00:39.126Z,35.88
2023-02-22T22:03:11.647Z,37.33
2023-02-22T22:05:40.351Z,38.45
2023-02-22T22:08:13.311Z,38.70
2023-02-22T22:10:41.090Z,41.97
2023-02-22T22:13:09.167Z,40.53
2023-02-22T22:15:37.490Z,41.85
2023-02-22T22:18:08.078Z,42.40
2023-02-22T22:20:39.059Z,40.07
2023-02-22T22:23:08.889Z,39.47
2023-02-22T22:25:38.960Z,40.72
2023-02-22T22:28:07.917Z,40.42
2023-02-22T22:30:37.067Z,41.05
2023-02-22T22:33:05.862Z,39.05
2023-02-22T22:35:33.758Z,40.72
2023-02-22T22:38:02.119Z,42.50
2023-02-22T22:40:30.103Z,42.85
2023-02-22T22:42:59.264Z,41.47
2023-02-22T22:45:26.992Z,42.77
2023-02-22T22:47:54.863Z,42.33
2023-02-22T22:50:26.348Z,43.92
2023-02-22T22:52:56.855Z,43.65
2023-02-22T22:55:25.019Z,45.17
2023-02-22T22:57:52.761Z,44.78
2023-02-22T23:00:35.900Z,46.47
2023-02-22T23:03:05.506Z,47.30
2023-02-22T23:05:37.277Z,45.63
2023-02-22T23:08:06.050Z,49.00
2023-02-22T23:10:39.258Z,48.05
2023-02-22T23:13:09.848Z,48.33
2023-02-22T23:15:42.948Z,52.25
2023-02-22T23:18:11.029Z,48.50
2023-02-22T23:20:39.071Z,49.60
2023-02-22T23:23:07.138Z,49.83
2023-02-22T23:25:35.161Z,49.28
2023-02-22T23:28:03.053Z,51.75
2023-02-22T23:30:30.885Z,52.78
2023-02-22T23:33:01.212Z,49.88
2023-02-22T23:35:28.991Z,53.15
2023-02-22T23:37:58.666Z,52.40
2023-02-22T23:40:26.890Z,53.03
2023-02-22T23:42:54.914Z,52.08
2023-02-22T23:45:24.517Z,53.58
2023-02-22T23:47:54.982Z,52.97
2023-02-22T23:50:25.950Z,55.05
2023-02-22T23:52:58.621Z,53.42
2023-02-22T23:55:27.031Z,53.63
2023-02-22T23:57:59.287Z,52.42
